createdAt,value
2022-12-09T00:01:25.390Z,3.02
2022-12-09T00:03:55.551Z,3.02
2022-12-09T00:06:27.769Z,3.03
2022-12-09T00:08:57.179Z,3.08
2022-12-09T00:11:25.392Z,3.06
2022-12-09T00:13:56.834Z,3.07
2022-12-09T00:16:25.744Z,3.05
2022-12-09T00:18:53.774Z,3.05
2022-12-09T00:21:29.167Z,3.05
2022-12-09T00:23:59.758Z,3.04
2022-12-09T00:26:28.286Z,3.03
2022-12-09T00:28:56.832Z,3.03
2022-12-09T00:31:29.556Z,3.01
2022-12-09T00:34:07.890Z,3.02
2022-12-09T00:36:38.288Z,2.98
2022-12-09T00:39:05.958Z,3.01
2022-12-09T00:41:33.496Z,2.98
2022-12-09T00:44:00.863Z,2.94
2022-12-09T00:46:28.316Z,2.93
2022-12-09T00:48:55.833Z,2.93
2022-12-09T00:51:25.208Z,2.92
2022-12-09T00:53:57.172Z,2.91
2022-12-09T00:56:29.428Z,2.92
2022-12-09T00:58:58.701Z,2.91
2022-12-09T01:01:27.771Z,2.88
2022-12-09T01:03:56.089Z,2.88
2022-12-09T01:06:26.321Z,2.90
2022-12-09T01:08:53.868Z,2.91
2022-12-09T01:11:29.058Z,2.90
2022-12-09T01:14:01.431Z,2.87
2022-12-09T01:16:33.490Z,2.86
2022-12-09T01:19:07.905Z,2.88
2022-12-09T01:21:36.046Z,2.91
2022-12-09T01:24:11.473Z,2.85
2022-12-09T01:26:40.876Z,2.86
2022-12-09T01:29:08.501Z,2.85
2022-12-09T01:31:36.257Z,2.83
2022-12-09T01:34:04.009Z,2.84
2022-12-09T01:36:31.742Z,2.80
2022-12-09T01:39:00.753Z,2.81
2022-12-09T01:41:28.725Z,2.80
2022-12-09T01:44:23.223Z,2.80
2022-12-09T01:47:00.297Z,2.77
2022-12-09T01:49:39.145Z,2.76
2022-12-09T01:52:19.129Z,2.82
2022-12-09T01:54:49.043Z,2.81
2022-12-09T01:57:17.198Z,2.84
2022-12-09T01:59:45.494Z,2.84
2022-12-09T02:02:17.851Z,2.80
2022-12-09T02:04:48.825Z,2.82
2022-12-09T02:07:19.774Z,2.86
2022-12-09T02:09:53.216Z,2.83
2022-12-09T02:13:02.806Z,2.85
2022-12-09T02:15:53.628Z,2.89
2022-12-09T02:18:52.842Z,2.84
2022-12-09T02:21:38.408Z,2.78
2022-12-09T02:24:34.818Z,2.78
2022-12-09T02:27:36.687Z,2.87
2022-12-09T02:30:23.215Z,2.85
2022-12-09T02:33:33.545Z,2.85
2022-12-09T02:36:13.235Z,2.98
2022-12-09T02:38:43.055Z,3.02
2022-12-09T02:41:26.897Z,3.03
2022-12-09T02:44:11.176Z,3.04
2022-12-09T02:46:41.826Z,3.09
2022-12-09T02:49:12.989Z,3.07
2022-12-09T02:51:44.763Z,3.02
2022-12-09T02:54:18.762Z,2.96
2022-12-09T02:57:00.212Z,2.91
2022-12-09T02:59:29.710Z,2.91
2022-12-09T03:02:24.323Z,2.93
2022-12-09T03:05:22.099Z,2.86
2022-12-09T03:08:28.378Z,2.92
2022-12-09T03:11:10.661Z,2.93
2022-12-09T03:14:12.499Z,2.87
2022-12-09T03:16:54.862Z,2.90
2022-12-09T03:19:37.879Z,2.85
2022-12-09T03:22:12.901Z,2.79
2022-12-09T03:24:54.374Z,2.72
2022-12-09T03:28:06.236Z,2.72
2022-12-09T03:30:39.777Z,2.88
2022-12-09T03:33:09.521Z,2.89
2022-12-09T03:35:43.415Z,2.93
2022-12-09T03:38:16.449Z,2.96
2022-12-09T03:40:44.801Z,3.02
2022-12-09T03:43:21.616Z,2.95
2022-12-09T03:45:56.369Z,2.90
2022-12-09T03:48:24.305Z,2.90
2022-12-09T03:51:12.399Z,2.90
2022-12-09T03:54:06.864Z,3.01
2022-12-09T03:56:42.795Z,3.07
2022-12-09T03:59:16.193Z,3.06
2022-12-09T04:01:46.001Z,3.03
2022-12-09T04:04:14.598Z,2.97
2022-12-09T04:06:42.488Z,3.01
2022-12-09T04:09:12.167Z,3.04
2022-12-09T04:11:39.814Z,3.03
2022-12-09T04:14:13.724Z,3.05
2022-12-09T04:16:43.815Z,3.00
2022-12-09T04:19:11.802Z,2.94
2022-12-09T04:21:39.222Z,2.87
2022-12-09T04:24:07.973Z,2.83
2022-12-09T04:26:35.531Z,2.81
2022-12-09T04:29:03.218Z,2.80
2022-12-09T04:31:30.739Z,2.81
2022-12-09T04:34:00.644Z,2.83
2022-12-09T04:36:31.811Z,2.84
2022-12-09T04:38:59.894Z,2.82
2022-12-09T04:41:28.472Z,2.83
2022-12-09T04:43:56.158Z,2.86
2022-12-09T04:46:23.975Z,2.91
2022-12-09T04:48:51.496Z,2.92
2022-12-09T04:51:20.188Z,2.94
2022-12-09T04:53:47.363Z,2.97
2022-12-09T04:56:20.283Z,3.04
2022-12-09T04:58:50.166Z,3.05
2022-12-09T05:01:30.109Z,3.07
2022-12-09T05:03:59.772Z,3.05
2022-12-09T05:06:27.700Z,3.04
2022-12-09T05:08:55.822Z,3.04
2022-12-09T05:11:24.436Z,3.03
2022-12-09T05:13:53.912Z,3.03
2022-12-09T05:16:22.533Z,3.04
2022-12-09T05:18:50.736Z,3.06
2022-12-09T05:21:20.944Z,3.08
2022-12-09T05:23:49.623Z,3.07
2022-12-09T05:26:22.720Z,3.04
2022-12-09T05:28:51.672Z,3.03
2022-12-09T05:31:22.960Z,3.05
2022-12-09T05:33:51.652Z,3.05
2022-12-09T05:36:24.761Z,3.07
2022-12-09T05:38:53.512Z,3.06
2022-12-09T05:41:22.879Z,3.05
2022-12-09T05:43:51.322Z,3.01
2022-12-09T05:46:19.209Z,3.02
2022-12-09T05:48:46.806Z,3.03
2022-12-09T05:51:28.776Z,2.99
2022-12-09T05:54:01.371Z,2.97
2022-12-09T05:56:30.006Z,2.97
2022-12-09T05:58:58.866Z,3.02
2022-12-09T06:01:27.462Z,3.03
2022-12-09T06:03:55.790Z,2.98
2022-12-09T06:06:28.000Z,2.96
2022-12-09T06:09:00.859Z,2.97
2022-12-09T06:11:29.390Z,2.98
2022-12-09T06:13:57.574Z,2.96
2022-12-09T06:16:25.842Z,2.94
2022-12-09T06:18:53.584Z,2.94
2022-12-09T06:21:22.012Z,2.92
2022-12-09T06:23:50.624Z,2.89
2022-12-09T06:26:29.220Z,2.90
2022-12-09T06:28:58.428Z,2.85
2022-12-09T06:31:28.294Z,2.89
2022-12-09T06:33:57.614Z,2.86
2022-12-09T06:36:29.162Z,2.84
2022-12-09T06:39:10.217Z,2.86
2022-12-09T06:41:42.160Z,2.85
2022-12-09T06:44:16.917Z,2.87
2022-12-09T06:46:47.197Z,2.86
2022-12-09T06:49:14.561Z,2.85
2022-12-09T06:51:42.260Z,2.90
2022-12-09T06:54:10.375Z,2.91
2022-12-09T06:56:37.953Z,2.90
2022-12-09T06:59:10.615Z,2.87
2022-12-09T07:01:39.601Z,2.88
2022-12-09T07:04:07.900Z,2.85
2022-12-09T07:06:45.288Z,2.84
2022-12-09T07:09:20.969Z,2.86
2022-12-09T07:11:49.028Z,2.85
2022-12-09T07:14:18.362Z,2.85
2022-12-09T07:16:46.754Z,2.84
2022-12-09T07:19:23.340Z,2.77
2022-12-09T07:21:52.551Z,2.76
2022-12-09T07:24:20.584Z,2.71
2022-12-09T07:26:48.841Z,2.70
2022-12-09T07:29:17.821Z,2.60
2022-12-09T07:31:45.350Z,2.61
2022-12-09T07:34:12.900Z,2.55
2022-12-09T07:36:40.697Z,2.57
2022-12-09T07:39:15.725Z,2.54
2022-12-09T07:41:44.053Z,2.53
2022-12-09T07:44:12.634Z,2.54
2022-12-09T07:46:40.859Z,2.49
2022-12-09T07:49:10.954Z,2.49
2022-12-09T07:51:38.364Z,2.44
2022-12-09T07:54:06.142Z,2.44
2022-12-09T07:56:33.687Z,2.42
2022-12-09T07:59:01.009Z,2.33
2022-12-09T08:01:30.446Z,2.28
2022-12-09T08:03:58.559Z,2.28
2022-12-09T08:06:30.382Z,2.28
2022-12-09T08:09:05.090Z,2.29
2022-12-09T08:11:34.309Z,2.27
2022-12-09T08:14:11.355Z,2.29
2022-12-09T08:16:42.579Z,2.30
2022-12-09T08:19:12.276Z,2.28
2022-12-09T08:21:40.738Z,2.22
2022-12-09T08:24:11.966Z,2.08
2022-12-09T08:26:40.288Z,1.98
2022-12-09T08:29:14.380Z,1.87
2022-12-09T08:31:44.305Z,1.89
2022-12-09T08:34:13.089Z,1.91
2022-12-09T08:36:42.409Z,1.98
2022-12-09T08:39:13.169Z,1.97
2022-12-09T08:41:43.134Z,2.02
2022-12-09T08:44:20.259Z,2.05
2022-12-09T08:46:52.996Z,2.09
2022-12-09T08:49:23.426Z,2.02
2022-12-09T08:51:53.687Z,2.04
2022-12-09T08:54:21.616Z,2.03
2022-12-09T08:56:52.918Z,2.09
2022-12-09T08:59:20.878Z,2.10
2022-12-09T09:01:48.664Z,2.12
2022-12-09T09:04:19.588Z,2.14
2022-12-09T09:06:50.782Z,2.12
2022-12-09T09:09:20.551Z,2.02
2022-12-09T09:11:48.236Z,1.97
2022-12-09T09:14:16.775Z,2.01
2022-12-09T09:16:46.284Z,2.06
2022-12-09T09:19:25.769Z,2.13
2022-12-09T09:21:55.330Z,2.07
2022-12-09T09:24:25.281Z,2.04
2022-12-09T09:26:54.030Z,2.09
2022-12-09T09:29:23.772Z,2.22
2022-12-09T09:31:54.530Z,2.17
2022-12-09T09:34:24.913Z,2.18
2022-12-09T09:36:52.896Z,2.24
2022-12-09T09:39:21.750Z,2.18
2022-12-09T09:42:17.135Z,2.16
2022-12-09T09:44:52.147Z,2.08
2022-12-09T09:48:03.756Z,2.29
2022-12-09T09:51:02.327Z,2.19
2022-12-09T09:53:35.649Z,2.12
2022-12-09T09:56:43.822Z,2.13
2022-12-09T10:00:14.868Z,2.22
2022-12-09T10:03:55.012Z,2.16
2022-12-09T10:07:07.432Z,1.96
2022-12-09T10:10:39.466Z,1.92
2022-12-09T10:13:53.721Z,1.99
2022-12-09T10:16:55.212Z,1.97
2022-12-09T10:19:49.552Z,2.10
2022-12-09T10:22:23.989Z,2.09
2022-12-09T10:24:58.277Z,2.03
2022-12-09T10:27:43.368Z,2.13
2022-12-09T10:30:16.294Z,2.41
2022-12-09T10:32:45.903Z,2.55
2022-12-09T10:35:32.920Z,2.40
2022-12-09T10:38:13.235Z,2.47
2022-12-09T10:40:46.981Z,2.49
2022-12-09T10:43:35.213Z,2.58
2022-12-09T10:46:18.355Z,2.48
2022-12-09T10:48:46.737Z,2.39
2022-12-09T10:51:24.870Z,2.32
2022-12-09T10:54:04.193Z,2.29
2022-12-09T10:56:36.859Z,2.37
2022-12-09T10:59:27.407Z,2.40
2022-12-09T11:02:02.031Z,2.43
2022-12-09T11:04:43.934Z,2.39
2022-12-09T11:07:18.260Z,2.40
2022-12-09T11:10:18.476Z,2.37
2022-12-09T11:12:51.348Z,2.39
2022-12-09T11:15:43.128Z,2.46
2022-12-09T11:18:31.253Z,2.56
2022-12-09T11:21:08.859Z,2.57
2022-12-09T11:23:36.894Z,2.71
2022-12-09T11:26:22.518Z,2.79
2022-12-09T11:29:04.627Z,2.90
2022-12-09T11:31:38.382Z,2.89
2022-12-09T11:34:20.834Z,2.93
2022-12-09T11:36:56.541Z,2.92
2022-12-09T11:39:34.816Z,2.91
2022-12-09T11:42:22.937Z,3.07
2022-12-09T11:45:07.125Z,2.96
2022-12-09T11:48:20.250Z,2.81
2022-12-09T11:50:32.483Z,2.69
2022-12-09T11:53:11.008Z,2.73
2022-12-09T11:56:05.467Z,2.81
2022-12-09T11:58:58.076Z,2.86
2022-12-09T12:01:48.114Z,2.91
2022-12-09T12:04:31.153Z,3.04
2022-12-09T12:07:39.433Z,3.03
2022-12-09T12:10:29.145Z,2.98
2022-12-09T12:13:51.182Z,2.98
2022-12-09T12:17:13.218Z,2.90
2022-12-09T12:19:50.529Z,2.83
2022-12-09T12:23:12.089Z,2.90
2022-12-09T12:26:22.322Z,2.93
2022-12-09T12:29:25.276Z,2.95
2022-12-09T12:32:38.100Z,2.88
2022-12-09T12:35:32.084Z,2.83
2022-12-09T12:38:59.201Z,2.80
2022-12-09T12:41:53.975Z,2.86
2022-12-09T12:45:07.122Z,2.90
2022-12-09T12:47:47.975Z,2.85
2022-12-09T12:50:51.696Z,2.85
2022-12-09T12:53:46.485Z,2.88
2022-12-09T12:56:37.620Z,2.87
2022-12-09T12:59:40.860Z,2.93
2022-12-09T13:03:09.570Z,2.91
2022-12-09T13:05:42.669Z,2.92
2022-12-09T13:08:52.625Z,3.02
2022-12-09T13:12:07.978Z,3.15
2022-12-09T13:15:02.229Z,3.12
2022-12-09T13:17:30.932Z,3.09
2022-12-09T13:20:01.901Z,3.06
2022-12-09T13:23:30.975Z,3.02
2022-12-09T13:26:13.032Z,3.05
2022-12-09T13:29:13.588Z,3.12
2022-12-09T13:32:27.627Z,3.19
2022-12-09T13:35:13.397Z,3.20
2022-12-09T13:37:43.580Z,3.25
2022-12-09T13:40:37.636Z,3.30
2022-12-09T13:43:12.869Z,3.30
2022-12-09T13:45:43.068Z,3.33
2022-12-09T13:48:17.025Z,3.38
2022-12-09T13:50:56.925Z,3.27
2022-12-09T13:53:40.006Z,3.30
2022-12-09T13:56:35.055Z,3.35
2022-12-09T13:59:56.549Z,3.37
2022-12-09T14:03:10.815Z,3.22
2022-12-09T14:05:39.549Z,3.18
2022-12-09T14:08:26.436Z,3.18
2022-12-09T14:10:54.028Z,3.27
2022-12-09T14:13:35.203Z,3.32
2022-12-09T14:16:34.842Z,3.26
2022-12-09T14:19:52.697Z,3.23
2022-12-09T14:22:20.103Z,3.24
2022-12-09T14:25:56.754Z,3.27
2022-12-09T14:28:34.877Z,3.32
2022-12-09T14:31:08.405Z,3.36
2022-12-09T14:33:46.669Z,3.33
2022-12-09T14:36:16.507Z,3.33
2022-12-09T14:39:26.336Z,3.43
2022-12-09T14:42:05.769Z,3.41
2022-12-09T14:45:02.268Z,3.39
2022-12-09T14:47:40.493Z,3.47
2022-12-09T14:50:28.965Z,3.62
2022-12-09T14:53:03.728Z,3.58
2022-12-09T14:55:38.635Z,3.63
2022-12-09T14:58:06.369Z,3.72
2022-12-09T15:00:40.807Z,3.74
2022-12-09T15:03:33.228Z,3.62
2022-12-09T15:06:19.154Z,3.55
2022-12-09T15:08:48.152Z,3.55
2022-12-09T15:11:20.234Z,3.58
2022-12-09T15:13:52.282Z,3.56
2022-12-09T15:16:25.721Z,3.48
2022-12-09T15:18:54.657Z,3.51
2022-12-09T15:21:32.250Z,3.51
2022-12-09T15:24:00.823Z,3.52
2022-12-09T15:26:33.524Z,3.51
2022-12-09T15:29:04.945Z,3.49
2022-12-09T15:31:34.284Z,3.49
2022-12-09T15:34:20.485Z,3.50
2022-12-09T15:36:59.324Z,3.50
2022-12-09T15:39:38.869Z,3.49
2022-12-09T15:42:18.148Z,3.48
2022-12-09T15:45:08.137Z,3.42
2022-12-09T15:47:40.753Z,3.43
2022-12-09T15:50:21.466Z,3.45
2022-12-09T15:53:14.159Z,3.42
2022-12-09T15:55:52.044Z,3.40
2022-12-09T15:58:26.522Z,3.42
2022-12-09T16:00:54.912Z,3.40
2022-12-09T16:03:31.809Z,3.36
2022-12-09T16:06:07.241Z,3.33
2022-12-09T16:08:43.615Z,3.34
2022-12-09T16:11:12.294Z,3.31
2022-12-09T16:14:00.827Z,3.30
2022-12-09T16:17:01.674Z,3.30
2022-12-09T16:19:32.775Z,3.29
2022-12-09T16:22:19.709Z,3.30
2022-12-09T16:25:15.650Z,3.27
2022-12-09T16:27:56.501Z,3.27
2022-12-09T16:30:27.014Z,3.27
2022-12-09T16:33:02.985Z,3.27
2022-12-09T16:36:06.860Z,3.24
2022-12-09T16:38:36.655Z,3.22
2022-12-09T16:41:10.039Z,3.23
2022-12-09T16:43:53.409Z,3.22
2022-12-09T16:46:20.518Z,3.27
2022-12-09T16:48:49.731Z,3.28
2022-12-09T16:51:25.029Z,3.23
2022-12-09T16:53:54.179Z,3.22
2022-12-09T16:56:31.823Z,3.20
2022-12-09T16:58:59.753Z,3.21
2022-12-09T17:01:34.846Z,3.21
2022-12-09T17:04:13.767Z,3.20
2022-12-09T17:06:40.968Z,3.20
2022-12-09T17:09:09.769Z,3.20
2022-12-09T17:11:37.057Z,3.19
2022-12-09T17:14:04.657Z,3.21
2022-12-09T17:16:33.796Z,3.20
2022-12-09T17:19:06.200Z,3.20
2022-12-09T17:21:35.775Z,3.21
2022-12-09T17:24:03.155Z,3.21
2022-12-09T17:26:30.446Z,3.18
2022-12-09T17:29:01.517Z,3.16
2022-12-09T17:31:30.064Z,3.18
2022-12-09T17:33:57.723Z,3.17
2022-12-09T17:36:25.903Z,3.20
2022-12-09T17:38:53.128Z,3.18
2022-12-09T17:41:23.551Z,3.17
2022-12-09T17:43:50.992Z,3.19
2022-12-09T17:46:18.789Z,3.17
2022-12-09T17:48:46.200Z,3.15
2022-12-09T17:51:17.881Z,3.16
2022-12-09T17:53:46.614Z,3.20
2022-12-09T17:56:23.283Z,3.19
2022-12-09T17:59:07.573Z,3.17
2022-12-09T18:01:37.371Z,3.12
2022-12-09T18:04:11.293Z,3.13
2022-12-09T18:06:45.391Z,3.13
2022-12-09T18:09:18.410Z,3.13
2022-12-09T18:11:46.859Z,3.15
2022-12-09T18:14:15.747Z,3.15
2022-12-09T18:16:43.474Z,3.17
2022-12-09T18:19:16.399Z,3.15
2022-12-09T18:21:45.034Z,3.16
2022-12-09T18:24:13.090Z,3.14
2022-12-09T18:26:42.149Z,3.15
2022-12-09T18:29:12.119Z,3.16
2022-12-09T18:31:40.599Z,3.15
2022-12-09T18:34:07.863Z,3.16
2022-12-09T18:36:35.503Z,3.18
2022-12-09T18:39:03.884Z,3.15
2022-12-09T18:41:32.585Z,3.13
2022-12-09T18:44:05.598Z,3.12
2022-12-09T18:46:38.588Z,3.14
2022-12-09T18:49:13.708Z,3.14
2022-12-09T18:51:44.302Z,3.14
2022-12-09T18:54:28.157Z,3.12
2022-12-09T18:56:59.583Z,3.08
2022-12-09T18:59:26.902Z,3.04
2022-12-09T19:01:54.609Z,3.02
2022-12-09T19:04:26.696Z,2.99
2022-12-09T19:06:58.657Z,3.00
2022-12-09T19:09:34.627Z,3.03
2022-12-09T19:12:37.894Z,3.04
2022-12-09T19:14:52.072Z,3.06
2022-12-09T19:17:20.017Z,3.07
2022-12-09T19:19:48.687Z,3.03
2022-12-09T19:22:16.023Z,3.02
2022-12-09T19:24:44.197Z,3.02
2022-12-09T19:27:13.358Z,3.04
2022-12-09T19:29:40.781Z,3.05
2022-12-09T19:32:29.307Z,3.03
2022-12-09T19:34:55.363Z,2.99
2022-12-09T19:37:22.649Z,2.98
2022-12-09T19:39:50.288Z,2.99
2022-12-09T19:42:19.124Z,2.98
2022-12-09T19:45:09.082Z,2.99
2022-12-09T19:47:47.711Z,3.02
2022-12-09T19:50:15.111Z,3.01
2022-12-09T19:52:42.466Z,2.99
2022-12-09T19:55:09.965Z,3.00
2022-12-09T19:57:37.163Z,3.01
2022-12-09T20:00:05.697Z,2.98
2022-12-09T20:02:34.675Z,2.99
2022-12-09T20:05:02.005Z,3.01
2022-12-09T20:07:29.805Z,3.01
2022-12-09T20:09:57.002Z,3.01
2022-12-09T20:12:24.113Z,2.98
2022-12-09T20:14:51.292Z,2.98
2022-12-09T20:17:18.548Z,2.94
2022-12-09T20:19:46.631Z,2.94
2022-12-09T20:22:14.145Z,2.92
2022-12-09T20:24:43.082Z,2.95
2022-12-09T20:27:10.352Z,2.94
2022-12-09T20:29:38.480Z,2.94
2022-12-09T20:32:08.870Z,2.93
2022-12-09T20:34:36.571Z,2.93
2022-12-09T20:37:04.584Z,2.92
2022-12-09T20:39:32.085Z,2.94
2022-12-09T20:41:59.392Z,2.90
2022-12-09T20:44:26.683Z,2.90
2022-12-09T20:46:53.932Z,2.90
2022-12-09T20:49:26.290Z,2.89
2022-12-09T20:51:55.983Z,2.92
2022-12-09T20:54:23.584Z,2.90
2022-12-09T20:56:52.906Z,2.92
2022-12-09T20:59:20.630Z,2.91
2022-12-09T21:01:47.956Z,2.89
2022-12-09T21:04:17.917Z,2.93
2022-12-09T21:06:46.603Z,2.91
2022-12-09T21:09:21.320Z,2.90
2022-12-09T21:11:50.049Z,2.89
2022-12-09T21:14:18.670Z,2.90
2022-12-09T21:16:47.678Z,2.88
2022-12-09T21:19:20.118Z,2.88
2022-12-09T21:21:48.352Z,2.89
2022-12-09T21:24:17.291Z,2.86
2022-12-09T21:26:47.101Z,2.84
2022-12-09T21:29:15.867Z,2.84
2022-12-09T21:31:44.524Z,2.83
2022-12-09T21:34:12.831Z,2.82
2022-12-09T21:36:43.620Z,2.83
2022-12-09T21:39:17.007Z,2.82
2022-12-09T21:41:44.928Z,2.80
2022-12-09T21:44:18.711Z,2.80
2022-12-09T21:46:46.286Z,2.78
2022-12-09T21:49:13.930Z,2.76
2022-12-09T21:51:42.324Z,2.73
2022-12-09T21:54:09.552Z,2.73
2022-12-09T21:56:37.834Z,2.71
2022-12-09T21:59:07.284Z,2.67
2022-12-09T22:01:41.318Z,2.65
2022-12-09T22:04:16.052Z,2.64
2022-12-09T22:06:50.993Z,2.66
2022-12-09T22:09:21.004Z,2.65
2022-12-09T22:11:48.663Z,2.64
2022-12-09T22:14:15.987Z,2.65
2022-12-09T22:16:46.114Z,2.64
2022-12-09T22:19:18.791Z,2.66
2022-12-09T22:21:47.424Z,2.66
2022-12-09T22:24:15.804Z,2.64
2022-12-09T22:26:43.920Z,2.64
2022-12-09T22:29:15.089Z,2.65
2022-12-09T22:31:43.894Z,2.65
2022-12-09T22:34:20.136Z,2.67
2022-12-09T22:36:49.217Z,2.69
2022-12-09T22:39:21.521Z,2.70
2022-12-09T22:41:48.938Z,2.71
2022-12-09T22:44:19.853Z,2.73
2022-12-09T22:46:48.543Z,2.72
2022-12-09T22:49:16.630Z,2.70
2022-12-09T22:51:45.913Z,2.70
2022-12-09T22:54:13.898Z,2.69
2022-12-09T22:56:43.583Z,2.67
2022-12-09T22:59:13.056Z,2.66
2022-12-09T23:01:43.082Z,2.67
2022-12-09T23:04:11.798Z,2.64
2022-12-09T23:06:42.257Z,2.64
2022-12-09T23:09:17.755Z,2.65
2022-12-09T23:11:45.823Z,2.63
2022-12-09T23:14:14.438Z,2.64
2022-12-09T23:16:42.012Z,2.62
2022-12-09T23:19:12.720Z,2.61
2022-12-09T23:21:43.120Z,2.60
2022-12-09T23:24:15.696Z,2.59
2022-12-09T23:26:45.835Z,2.58
2022-12-09T23:29:16.249Z,2.59
2022-12-09T23:31:43.984Z,2.58
2022-12-09T23:34:13.920Z,2.58
2022-12-09T23:36:44.498Z,2.56
2022-12-09T23:39:17.363Z,2.57
2022-12-09T23:41:46.034Z,2.57
2022-12-09T23:44:17.836Z,2.59
2022-12-09T23:46:45.445Z,2.58
2022-12-09T23:49:12.846Z,2.58
2022-12-09T23:51:43.828Z,2.58
2022-12-09T23:54:14.539Z,2.58
2022-12-09T23:56:52.468Z,2.57
2022-12-09T23:59:22.842Z,2.57
